createdAt,value
2023-05-09T00:00:11.761Z,101537.47
2023-05-09T00:02:41.928Z,101533.02
2023-05-09T00:05:10.813Z,101535.22
2023-05-09T00:07:40.829Z,101529.22
2023-05-09T00:10:10.341Z,101535.04
2023-05-09T00:12:39.301Z,101531.58
2023-05-09T00:15:10.238Z,101528.28
2023-05-09T00:17:39.779Z,101531.81
2023-05-09T00:20:12.000Z,101526.00
2023-05-09T00:22:41.737Z,101530.10
2023-05-09T00:25:11.142Z,101533.19
2023-05-09T00:27:40.295Z,101535.22
2023-05-09T00:30:17.104Z,101532.84
2023-05-09T00:32:46.538Z,101538.66
2023-05-09T00:35:15.858Z,101534.91
2023-05-09T00:37:45.827Z,101530.80
2023-05-09T00:40:15.062Z,101531.47
2023-05-09T00:42:43.736Z,101529.09
2023-05-09T00:45:12.821Z,101526.35
2023-05-09T00:47:41.895Z,101531.98
2023-05-09T00:50:11.181Z,101527.02
2023-05-09T00:52:40.710Z,101536.43
2023-05-09T00:55:10.077Z,101533.66
2023-05-09T00:57:39.853Z,101537.42
2023-05-09T01:00:11.746Z,101529.89
2023-05-09T01:02:48.634Z,101542.34
2023-05-09T01:05:17.952Z,101532.97
2023-05-09T01:08:13.637Z,101535.35
2023-05-09T01:10:59.901Z,101538.44
2023-05-09T01:13:32.812Z,101535.00
2023-05-09T01:16:12.052Z,101532.27
2023-05-09T01:18:46.747Z,101534.66
2023-05-09T01:21:29.100Z,101538.41
2023-05-09T01:24:29.434Z,101528.33
2023-05-09T01:27:20.122Z,101529.70
2023-05-09T01:29:57.409Z,101528.14
2023-05-09T01:32:27.770Z,101538.56
2023-05-09T01:34:59.587Z,101530.88
2023-05-09T01:37:35.619Z,101534.97
2023-05-09T01:40:09.630Z,101525.06
2023-05-09T01:42:45.647Z,101533.42
2023-05-09T01:45:14.682Z,101535.13
2023-05-09T01:47:44.701Z,101540.09
2023-05-09T01:50:13.324Z,101538.72
2023-05-09T01:52:42.115Z,101533.73
2023-05-09T01:55:10.962Z,101532.34
2023-05-09T01:57:40.318Z,101537.45
2023-05-09T02:00:10.822Z,101533.70
2023-05-09T02:02:42.626Z,101539.52
2023-05-09T02:05:12.541Z,101534.75
2023-05-09T02:07:42.934Z,101534.91
2023-05-09T02:10:12.084Z,101536.95
2023-05-09T02:12:41.433Z,101535.73
2023-05-09T02:15:11.359Z,101534.38
2023-05-09T02:17:42.363Z,101537.11
2023-05-09T02:20:11.848Z,101529.25
2023-05-09T02:22:42.429Z,101531.32
2023-05-09T02:25:14.148Z,101529.28
2023-05-09T02:27:45.170Z,101536.82
2023-05-09T02:30:23.045Z,101538.19
2023-05-09T02:33:02.095Z,101541.77
2023-05-09T02:35:31.178Z,101546.89
2023-05-09T02:38:01.317Z,101548.95
2023-05-09T02:40:30.335Z,101542.63
2023-05-09T02:42:59.259Z,101548.45
2023-05-09T02:45:29.062Z,101541.77
2023-05-09T02:47:57.870Z,101545.02
2023-05-09T02:50:27.214Z,101547.09
2023-05-09T02:52:55.815Z,101540.44
2023-05-09T02:55:25.155Z,101546.95
2023-05-09T02:58:09.215Z,101538.44
2023-05-09T03:00:27.024Z,101541.33
2023-05-09T03:02:55.953Z,101547.47
2023-05-09T03:05:25.993Z,101546.45
2023-05-09T03:07:55.119Z,101548.52
2023-05-09T03:10:24.412Z,101542.73
2023-05-09T03:12:54.030Z,101545.65
2023-05-09T03:15:23.021Z,101551.97
2023-05-09T03:17:51.901Z,101555.92
2023-05-09T03:20:22.515Z,101553.41
2023-05-09T03:22:51.430Z,101555.12
2023-05-09T03:25:20.220Z,101558.36
2023-05-09T03:27:48.879Z,101566.22
2023-05-09T03:30:18.588Z,101568.73
2023-05-09T03:32:48.718Z,101561.89
2023-05-09T03:35:19.188Z,101565.84
2023-05-09T03:37:47.760Z,101567.58
2023-05-09T03:40:17.262Z,101567.77
2023-05-09T03:42:47.820Z,101569.68
2023-05-09T03:45:16.873Z,101572.98
2023-05-09T03:47:47.436Z,101570.59
2023-05-09T03:50:17.113Z,101559.66
2023-05-09T03:52:47.117Z,101568.55
2023-05-09T03:55:18.544Z,101570.59
2023-05-09T03:57:47.215Z,101574.34
2023-05-09T04:00:18.720Z,101571.42
2023-05-09T04:02:50.134Z,101570.22
2023-05-09T04:05:22.243Z,101577.75
2023-05-09T04:08:01.012Z,101584.42
2023-05-09T04:10:31.965Z,101577.94
2023-05-09T04:13:00.878Z,101585.09
2023-05-09T04:15:29.693Z,101589.36
2023-05-09T04:17:59.591Z,101588.31
2023-05-09T04:20:28.611Z,101598.08
2023-05-09T04:22:59.013Z,101592.95
2023-05-09T04:25:29.571Z,101592.09
2023-05-09T04:27:58.535Z,101592.60
2023-05-09T04:30:30.208Z,101597.41
2023-05-09T04:32:59.806Z,101595.20
2023-05-09T04:35:29.884Z,101593.02
2023-05-09T04:37:59.091Z,101596.28
2023-05-09T04:40:28.707Z,101607.73
2023-05-09T04:43:00.484Z,101602.42
2023-05-09T04:45:31.657Z,101595.77
2023-05-09T04:48:01.432Z,101599.20
2023-05-09T04:50:31.218Z,101602.64
2023-05-09T04:52:59.745Z,101598.40
2023-05-09T04:55:29.684Z,101599.47
2023-05-09T04:57:58.379Z,101603.28
2023-05-09T05:00:27.194Z,101606.73
2023-05-09T05:02:56.264Z,101603.35
2023-05-09T05:05:26.628Z,101603.02
2023-05-09T05:07:56.035Z,101603.08
2023-05-09T05:10:27.320Z,101607.90
2023-05-09T05:12:58.357Z,101601.59
2023-05-09T05:15:28.042Z,101606.22
2023-05-09T05:17:57.077Z,101598.19
2023-05-09T05:20:27.878Z,101600.97
2023-05-09T05:22:58.189Z,101603.57
2023-05-09T05:25:27.282Z,101604.69
2023-05-09T05:27:57.037Z,101594.79
2023-05-09T05:30:26.693Z,101597.61
2023-05-09T05:32:55.725Z,101593.69
2023-05-09T05:35:24.624Z,101601.06
2023-05-09T05:37:54.553Z,101605.36
2023-05-09T05:40:24.514Z,101597.13
2023-05-09T05:42:54.497Z,101593.19
2023-05-09T05:45:24.167Z,101593.36
2023-05-09T05:47:56.151Z,101597.30
2023-05-09T05:50:26.898Z,101604.19
2023-05-09T05:52:55.781Z,101607.45
2023-05-09T05:55:24.791Z,101606.24
2023-05-09T05:57:53.700Z,101601.09
2023-05-09T06:00:22.931Z,101599.36
2023-05-09T06:02:53.237Z,101608.27
2023-05-09T06:05:24.063Z,101600.89
2023-05-09T06:07:53.625Z,101605.34
2023-05-09T06:10:22.990Z,101604.99
2023-05-09T06:12:51.780Z,101600.16
2023-05-09T06:15:20.428Z,101602.08
2023-05-09T06:17:51.192Z,101605.31
2023-05-09T06:20:20.071Z,101600.30
2023-05-09T06:22:49.434Z,101601.26
2023-05-09T06:25:19.395Z,101601.20
2023-05-09T06:27:47.949Z,101606.44
2023-05-09T06:30:25.746Z,101600.50
2023-05-09T06:32:47.309Z,101599.01
2023-05-09T06:35:16.438Z,101595.65
2023-05-09T06:37:48.657Z,101594.88
2023-05-09T06:40:17.667Z,101591.01
2023-05-09T06:42:46.073Z,101589.48
2023-05-09T06:45:15.312Z,101587.18
2023-05-09T06:47:44.323Z,101584.31
2023-05-09T06:50:13.175Z,101596.13
2023-05-09T06:52:42.565Z,101587.61
2023-05-09T06:55:12.367Z,101585.78
2023-05-09T06:57:40.990Z,101590.13
2023-05-09T07:00:11.694Z,101586.12
2023-05-09T07:02:42.396Z,101580.49
2023-05-09T07:05:11.952Z,101576.02
2023-05-09T07:07:42.748Z,101578.81
2023-05-09T07:10:12.980Z,101570.08
2023-05-09T07:12:42.853Z,101575.30
2023-05-09T07:15:12.373Z,101565.08
2023-05-09T07:17:41.934Z,101566.94
2023-05-09T07:20:11.426Z,101566.28
2023-05-09T07:22:40.184Z,101561.61
2023-05-09T07:25:10.840Z,101554.83
2023-05-09T07:27:41.010Z,101560.20
2023-05-09T07:30:11.546Z,101549.70
2023-05-09T07:32:40.940Z,101547.84
2023-05-09T07:35:09.670Z,101544.29
2023-05-09T07:37:39.320Z,101537.48
2023-05-09T07:40:10.837Z,101551.02
2023-05-09T07:42:40.397Z,101527.69
2023-05-09T07:45:12.188Z,101532.95
2023-05-09T07:47:41.745Z,101535.67
2023-05-09T07:50:11.459Z,101520.61
2023-05-09T07:52:41.745Z,101525.30
2023-05-09T07:55:12.174Z,101527.80
2023-05-09T07:57:41.005Z,101524.45
2023-05-09T08:00:11.019Z,101527.00
2023-05-09T08:02:42.705Z,101528.21
2023-05-09T08:05:13.391Z,101525.66
2023-05-09T08:07:42.698Z,101532.41
2023-05-09T08:10:11.885Z,101533.58
2023-05-09T08:12:40.749Z,101524.12
2023-05-09T08:15:11.381Z,101529.38
2023-05-09T08:17:40.577Z,101523.95
2023-05-09T08:20:11.540Z,101516.28
2023-05-09T08:22:40.689Z,101515.82
2023-05-09T08:25:10.136Z,101510.91
2023-05-09T08:27:39.104Z,101518.09
2023-05-09T08:30:11.103Z,101517.11
2023-05-09T08:32:40.355Z,101515.36
2023-05-09T08:35:10.406Z,101507.77
2023-05-09T08:37:38.856Z,101517.73
2023-05-09T08:40:09.734Z,101516.45
2023-05-09T08:42:39.251Z,101508.00
2023-05-09T08:45:10.822Z,101511.47
2023-05-09T08:47:39.763Z,101504.42
2023-05-09T08:50:11.174Z,101504.55
2023-05-09T08:52:39.939Z,101505.35
2023-05-09T08:55:09.480Z,101505.11
2023-05-09T08:57:38.411Z,101512.45
2023-05-09T09:00:11.002Z,101507.75
2023-05-09T09:02:42.863Z,101504.90
2023-05-09T09:05:23.851Z,101493.91
2023-05-09T09:07:44.099Z,101498.09
2023-05-09T09:10:12.856Z,101492.62
2023-05-09T09:12:41.745Z,101498.86
2023-05-09T09:15:14.318Z,101489.09
2023-05-09T09:17:43.815Z,101499.69
2023-05-09T09:20:13.178Z,101492.92
2023-05-09T09:22:43.476Z,101485.09
2023-05-09T09:25:11.912Z,101486.02
2023-05-09T09:27:41.858Z,101489.88
2023-05-09T09:30:12.166Z,101493.25
2023-05-09T09:32:41.839Z,101488.38
2023-05-09T09:35:11.817Z,101481.39
2023-05-09T09:37:43.305Z,101475.78
2023-05-09T09:40:14.056Z,101483.30
2023-05-09T09:42:45.650Z,101481.39
2023-05-09T09:45:19.619Z,101484.80
2023-05-09T09:47:50.275Z,101476.27
2023-05-09T09:50:22.090Z,101475.54
2023-05-09T09:52:57.767Z,101477.08
2023-05-09T09:55:26.768Z,101469.12
2023-05-09T09:57:55.912Z,101463.92
2023-05-09T10:00:27.952Z,101464.53
2023-05-09T10:02:59.391Z,101464.49
2023-05-09T10:05:29.918Z,101463.08
2023-05-09T10:08:03.159Z,101466.20
2023-05-09T10:10:34.085Z,101462.21
2023-05-09T10:13:09.951Z,101470.04
2023-05-09T10:15:52.102Z,101466.48
2023-05-09T10:18:11.241Z,101470.23
2023-05-09T10:20:41.203Z,101462.38
2023-05-09T10:23:11.852Z,101463.96
2023-05-09T10:25:49.411Z,101459.58
2023-05-09T10:28:19.961Z,101460.64
2023-05-09T10:31:11.817Z,101456.17
2023-05-09T10:33:47.943Z,101461.17
2023-05-09T10:36:20.423Z,101459.79
2023-05-09T10:38:50.783Z,101456.55
2023-05-09T10:41:19.492Z,101448.52
2023-05-09T10:43:48.462Z,101451.05
2023-05-09T10:46:19.453Z,101449.55
2023-05-09T10:48:49.156Z,101449.87
2023-05-09T10:51:18.676Z,101445.11
2023-05-09T10:53:49.493Z,101446.41
2023-05-09T10:56:33.088Z,101444.49
2023-05-09T10:59:02.781Z,101438.27
2023-05-09T11:01:40.198Z,101437.59
2023-05-09T11:04:14.800Z,101443.08
2023-05-09T11:06:55.126Z,101437.23
2023-05-09T11:09:37.817Z,101435.64
2023-05-09T11:12:12.535Z,101432.85
2023-05-09T11:14:52.321Z,101423.80
2023-05-09T11:17:28.904Z,101424.85
2023-05-09T11:20:05.835Z,101428.59
2023-05-09T11:22:43.367Z,101433.17
2023-05-09T11:25:13.799Z,101422.01
2023-05-09T11:27:45.929Z,101419.98
2023-05-09T11:30:16.821Z,101419.66
2023-05-09T11:32:49.936Z,101423.15
2023-05-09T11:35:21.613Z,101414.45
2023-05-09T11:38:04.538Z,101408.08
2023-05-09T11:40:35.079Z,101408.73
2023-05-09T11:43:04.121Z,101412.98
2023-05-09T11:45:33.704Z,101407.70
2023-05-09T11:48:04.391Z,101403.67
2023-05-09T11:50:34.825Z,101403.14
2023-05-09T11:53:04.170Z,101403.55
2023-05-09T11:55:35.637Z,101413.75
2023-05-09T11:58:07.522Z,101413.11
2023-05-09T12:00:37.588Z,101400.23
2023-05-09T12:03:07.579Z,101404.47
2023-05-09T12:05:38.964Z,101399.35
2023-05-09T12:08:09.463Z,101397.41
2023-05-09T12:10:43.911Z,101397.73
2023-05-09T12:13:13.231Z,101385.09
2023-05-09T12:15:42.952Z,101382.45
2023-05-09T12:18:13.990Z,101392.98
2023-05-09T12:20:44.469Z,101390.30
2023-05-09T12:23:14.645Z,101381.48
2023-05-09T12:25:57.015Z,101381.81
2023-05-09T12:28:26.559Z,101379.16
2023-05-09T12:30:57.689Z,101376.11
2023-05-09T12:33:29.710Z,101372.29
2023-05-09T12:36:09.548Z,101363.59
2023-05-09T12:38:40.113Z,101356.27
2023-05-09T12:41:18.841Z,101362.36
2023-05-09T12:43:43.995Z,101357.62
2023-05-09T12:46:13.256Z,101360.91
2023-05-09T12:48:44.649Z,101364.91
2023-05-09T12:51:19.468Z,101369.34
2023-05-09T12:53:48.807Z,101361.89
2023-05-09T12:56:22.892Z,101357.30
2023-05-09T12:58:54.201Z,101355.90
2023-05-09T13:01:29.984Z,101362.25
2023-05-09T13:04:05.179Z,101360.19
2023-05-09T13:06:36.026Z,101356.41
2023-05-09T13:09:06.614Z,101360.31
2023-05-09T13:11:37.668Z,101349.16
2023-05-09T13:14:08.245Z,101351.19
2023-05-09T13:16:37.732Z,101347.48
2023-05-09T13:19:06.584Z,101348.45
2023-05-09T13:21:37.148Z,101344.52
2023-05-09T13:24:07.537Z,101353.45
2023-05-09T13:26:36.504Z,101346.76
2023-05-09T13:29:05.574Z,101339.53
2023-05-09T13:31:35.753Z,101342.29
2023-05-09T13:34:04.733Z,101334.86
2023-05-09T13:36:33.692Z,101332.30
2023-05-09T13:39:04.658Z,101323.70
2023-05-09T13:41:38.124Z,101331.98
2023-05-09T13:44:07.690Z,101337.50
2023-05-09T13:46:36.904Z,101337.63
2023-05-09T13:49:05.700Z,101329.78
2023-05-09T13:51:34.968Z,101327.55
2023-05-09T13:54:06.117Z,101336.89
2023-05-09T13:56:36.180Z,101330.31
2023-05-09T13:59:05.331Z,101335.19
2023-05-09T14:01:34.886Z,101328.25
2023-05-09T14:04:03.956Z,101330.04
2023-05-09T14:06:33.704Z,101329.12
2023-05-09T14:09:03.736Z,101330.17
2023-05-09T14:11:33.075Z,101326.69
2023-05-09T14:14:02.889Z,101330.77
2023-05-09T14:16:32.090Z,101329.72
2023-05-09T14:19:01.571Z,101319.41
2023-05-09T14:21:30.970Z,101316.97
2023-05-09T14:24:01.170Z,101326.55
2023-05-09T14:26:30.719Z,101324.76
2023-05-09T14:28:59.572Z,101323.70
2023-05-09T14:31:29.222Z,101327.20
2023-05-09T14:34:00.184Z,101314.77
2023-05-09T14:36:29.972Z,101323.99
2023-05-09T14:38:59.689Z,101319.85
2023-05-09T14:41:29.458Z,101318.47
2023-05-09T14:43:59.018Z,101322.81
2023-05-09T14:46:28.451Z,101316.38
2023-05-09T14:48:59.830Z,101323.03
2023-05-09T14:51:29.419Z,101323.44
2023-05-09T14:53:58.838Z,101316.18
2023-05-09T14:56:29.120Z,101316.66
2023-05-09T14:58:58.723Z,101313.66
2023-05-09T15:01:30.370Z,101304.94
2023-05-09T15:04:21.458Z,101309.16
2023-05-09T15:06:50.972Z,101309.69
2023-05-09T15:09:20.099Z,101309.16
2023-05-09T15:11:49.375Z,101310.00
2023-05-09T15:14:18.522Z,101306.07
2023-05-09T15:16:47.050Z,101307.13
2023-05-09T15:19:15.750Z,101305.63
2023-05-09T15:21:44.314Z,101306.23
2023-05-09T15:24:13.029Z,101304.00
2023-05-09T15:26:41.809Z,101302.62
2023-05-09T15:29:10.433Z,101304.52
2023-05-09T15:31:39.074Z,101307.28
2023-05-09T15:34:09.378Z,101313.20
2023-05-09T15:36:38.330Z,101310.64
2023-05-09T15:39:07.111Z,101305.50
2023-05-09T15:41:36.125Z,101303.47
2023-05-09T15:44:05.441Z,101304.52
2023-05-09T15:46:35.366Z,101305.45
2023-05-09T15:49:04.318Z,101300.78
2023-05-09T15:51:32.962Z,101297.22
2023-05-09T15:54:01.607Z,101301.10
2023-05-09T15:56:30.593Z,101296.38
2023-05-09T15:58:59.316Z,101298.16
2023-05-09T16:01:28.181Z,101297.71
2023-05-09T16:03:59.166Z,101302.64
2023-05-09T16:06:28.432Z,101295.69
2023-05-09T16:09:01.161Z,101291.95
2023-05-09T16:11:34.891Z,101293.00
2023-05-09T16:14:05.965Z,101292.88
2023-05-09T16:16:34.908Z,101291.70
2023-05-09T16:19:06.985Z,101283.83
2023-05-09T16:21:37.809Z,101284.75
2023-05-09T16:24:07.804Z,101283.23
2023-05-09T16:26:36.447Z,101277.08
2023-05-09T16:29:05.358Z,101285.41
2023-05-09T16:31:35.650Z,101279.63
2023-05-09T16:34:06.347Z,101285.53
2023-05-09T16:36:36.765Z,101288.00
2023-05-09T16:39:05.425Z,101288.71
2023-05-09T16:41:34.172Z,101282.22
2023-05-09T16:44:03.065Z,101287.79
2023-05-09T16:46:32.060Z,101278.73
2023-05-09T16:49:03.184Z,101289.95
2023-05-09T16:51:32.004Z,101284.37
2023-05-09T16:54:01.766Z,101286.52
2023-05-09T16:56:30.792Z,101286.91
2023-05-09T16:59:01.599Z,101289.53
2023-05-09T17:01:32.518Z,101292.34
2023-05-09T17:04:01.496Z,101292.72
2023-05-09T17:06:30.570Z,101287.96
2023-05-09T17:09:00.605Z,101283.70
2023-05-09T17:11:29.374Z,101291.48
2023-05-09T17:13:58.077Z,101287.74
2023-05-09T17:16:27.139Z,101293.65
2023-05-09T17:18:55.993Z,101291.47
2023-05-09T17:21:26.603Z,101294.94
2023-05-09T17:23:55.779Z,101291.72
2023-05-09T17:26:26.142Z,101293.66
2023-05-09T17:28:54.922Z,101297.32
2023-05-09T17:31:23.625Z,101292.91
2023-05-09T17:33:52.790Z,101299.13
2023-05-09T17:36:21.916Z,101299.69
2023-05-09T17:38:51.087Z,101296.33
2023-05-09T17:41:19.988Z,101301.35
2023-05-09T17:43:50.997Z,101296.94
2023-05-09T17:46:20.476Z,101297.17
2023-05-09T17:48:50.043Z,101294.98
2023-05-09T17:51:18.702Z,101296.92
2023-05-09T17:53:47.371Z,101299.35
2023-05-09T17:56:16.076Z,101292.52
2023-05-09T17:58:45.175Z,101298.58
2023-05-09T18:01:15.526Z,101300.33
2023-05-09T18:03:44.416Z,101298.66
2023-05-09T18:06:14.902Z,101309.50
2023-05-09T18:08:43.905Z,101302.48
2023-05-09T18:11:12.787Z,101310.73
2023-05-09T18:13:41.728Z,101307.64
2023-05-09T18:16:11.500Z,101306.31
2023-05-09T18:18:40.525Z,101302.89
2023-05-09T18:21:09.372Z,101301.89
2023-05-09T18:23:40.293Z,101302.97
2023-05-09T18:26:09.126Z,101303.52
2023-05-09T18:28:41.341Z,101298.91
2023-05-09T18:31:11.886Z,101297.42
2023-05-09T18:33:41.984Z,101303.28
2023-05-09T18:36:11.196Z,101301.39
2023-05-09T18:38:42.972Z,101306.70
2023-05-09T18:41:12.286Z,101307.41
2023-05-09T18:43:44.560Z,101309.62
2023-05-09T18:46:21.405Z,101304.14
2023-05-09T18:48:51.799Z,101310.15
2023-05-09T18:51:21.452Z,101307.25
2023-05-09T18:53:50.215Z,101304.16
2023-05-09T18:56:22.116Z,101303.50
2023-05-09T18:58:50.841Z,101301.45
2023-05-09T19:01:20.633Z,101304.23
2023-05-09T19:03:51.291Z,101302.52
2023-05-09T19:06:20.724Z,101303.03
2023-05-09T19:08:49.634Z,101302.39
2023-05-09T19:11:20.595Z,101300.71
2023-05-09T19:13:49.500Z,101299.21
2023-05-09T19:16:20.497Z,101298.37
2023-05-09T19:18:49.332Z,101297.22
2023-05-09T19:21:18.443Z,101303.22
2023-05-09T19:23:49.044Z,101299.80
2023-05-09T19:26:18.256Z,101295.89
2023-05-09T19:28:47.350Z,101296.25
2023-05-09T19:31:16.056Z,101294.05
2023-05-09T19:33:47.198Z,101293.91
2023-05-09T19:36:17.746Z,101293.05
2023-05-09T19:38:47.144Z,101294.09
2023-05-09T19:41:15.707Z,101294.11
2023-05-09T19:43:46.341Z,101298.09
2023-05-09T19:46:15.343Z,101295.02
2023-05-09T19:48:46.038Z,101296.23
2023-05-09T19:51:15.297Z,101297.44
2023-05-09T19:53:46.747Z,101291.28
2023-05-09T19:56:15.319Z,101289.75
2023-05-09T19:58:44.161Z,101294.73
2023-05-09T20:01:13.006Z,101287.89
2023-05-09T20:03:43.157Z,101288.23
2023-05-09T20:06:14.305Z,101289.27
2023-05-09T20:08:45.305Z,101287.89
2023-05-09T20:11:14.870Z,101284.64
2023-05-09T20:13:44.719Z,101291.16
2023-05-09T20:16:13.617Z,101286.70
2023-05-09T20:18:42.337Z,101283.80
2023-05-09T20:21:11.493Z,101279.52
2023-05-09T20:23:41.447Z,101277.47
2023-05-09T20:26:11.113Z,101275.25
2023-05-09T20:28:40.026Z,101278.50
2023-05-09T20:31:08.493Z,101273.20
2023-05-09T20:33:37.495Z,101271.16
2023-05-09T20:36:09.148Z,101272.70
2023-05-09T20:38:38.453Z,101275.61
2023-05-09T20:41:08.482Z,101276.98
2023-05-09T20:43:38.093Z,101277.16
2023-05-09T20:46:07.087Z,101277.34
2023-05-09T20:48:36.736Z,101271.17
2023-05-09T20:51:05.726Z,101272.55
2023-05-09T20:53:34.730Z,101277.17
2023-05-09T20:56:04.360Z,101272.38
2023-05-09T20:58:34.220Z,101272.38
2023-05-09T21:01:03.782Z,101273.58
2023-05-09T21:03:32.802Z,101272.20
2023-05-09T21:06:01.693Z,101269.78
2023-05-09T21:08:30.836Z,101268.59
2023-05-09T21:10:59.556Z,101270.81
2023-05-09T21:13:28.529Z,101271.16
2023-05-09T21:15:57.572Z,101271.16
2023-05-09T21:18:27.244Z,101278.70
2023-05-09T21:20:55.945Z,101269.11
2023-05-09T21:23:24.823Z,101269.11
2023-05-09T21:25:54.024Z,101271.51
2023-05-09T21:28:22.848Z,101269.28
2023-05-09T21:30:54.132Z,101267.91
2023-05-09T21:33:23.186Z,101259.53
2023-05-09T21:35:51.873Z,101259.19
2023-05-09T21:38:22.839Z,101252.34
2023-05-09T21:40:51.776Z,101252.53
2023-05-09T21:43:20.875Z,101246.72
2023-05-09T21:45:51.182Z,101241.41
2023-05-09T21:48:19.984Z,101241.55
2023-05-09T21:50:48.604Z,101241.74
2023-05-09T21:53:17.048Z,101243.80
2023-05-09T21:55:46.023Z,101241.07
2023-05-09T21:58:15.199Z,101233.20
2023-05-09T22:00:44.294Z,101234.22
2023-05-09T22:03:13.512Z,101231.66
2023-05-09T22:05:42.517Z,101227.03
2023-05-09T22:08:11.344Z,101224.29
2023-05-09T22:10:40.502Z,101231.47
2023-05-09T22:13:09.295Z,101228.23
2023-05-09T22:15:38.069Z,101224.64
2023-05-09T22:18:07.037Z,101220.70
2023-05-09T22:20:36.730Z,101220.88
2023-05-09T22:23:05.556Z,101222.26
2023-05-09T22:25:39.622Z,101226.37
2023-05-09T22:28:09.404Z,101228.77
2023-05-09T22:30:39.290Z,101217.83
2023-05-09T22:33:08.304Z,101214.59
2023-05-09T22:35:37.353Z,101218.34
2023-05-09T22:38:06.404Z,101227.41
2023-05-09T22:40:35.296Z,101215.10
2023-05-09T22:43:04.084Z,101215.08
2023-05-09T22:45:32.812Z,101213.88
2023-05-09T22:48:03.337Z,101223.97
2023-05-09T22:50:34.845Z,101215.94
2023-05-09T22:53:03.547Z,101213.71
2023-05-09T22:55:33.203Z,101210.64
2023-05-09T22:58:02.150Z,101210.64
2023-05-09T23:00:32.387Z,101207.22
2023-05-09T23:03:03.213Z,101201.75
2023-05-09T23:05:33.637Z,101206.02
2023-05-09T23:08:02.329Z,101208.77
2023-05-09T23:10:32.757Z,101210.64
2023-05-09T23:13:01.865Z,101202.09
2023-05-09T23:15:30.587Z,101196.45
2023-05-09T23:17:59.748Z,101194.23
2023-05-09T23:20:28.580Z,101192.17
2023-05-09T23:22:58.248Z,101195.94
2023-05-09T23:25:27.001Z,101194.91
2023-05-09T23:27:55.640Z,101196.45
2023-05-09T23:30:24.561Z,101194.05
2023-05-09T23:32:53.578Z,101192.86
2023-05-09T23:35:23.409Z,101192.52
2023-05-09T23:37:53.452Z,101177.46
2023-05-09T23:40:23.548Z,101178.48
2023-05-09T23:42:53.426Z,101174.55
2023-05-09T23:45:22.430Z,101179.50
2023-05-09T23:47:51.702Z,101177.79
2023-05-09T23:50:21.594Z,101176.25
2023-05-09T23:52:50.853Z,101175.59
2023-05-09T23:55:20.048Z,101169.61
2023-05-09T23:57:49.034Z,101167.20
